createdAt,value
2018-06-16T00:00:41.210Z,1.47
2018-06-16T00:03:09.989Z,1.80
2018-06-16T00:05:38.679Z,1.70
2018-06-16T00:08:07.520Z,1.57
2018-06-16T00:10:37.325Z,1.70
2018-06-16T00:13:08.061Z,1.63
2018-06-16T00:15:36.769Z,2.00
2018-06-16T00:18:06.576Z,1.50
2018-06-16T00:20:35.408Z,2.23
2018-06-16T00:23:04.184Z,1.90
2018-06-16T00:25:32.848Z,1.77
2018-06-16T00:28:01.560Z,2.03
2018-06-16T00:30:30.381Z,2.00
2018-06-16T00:33:00.168Z,1.90
2018-06-16T00:35:28.842Z,1.80
2018-06-16T00:37:57.590Z,1.73
2018-06-16T00:40:26.473Z,1.90
2018-06-16T00:42:55.208Z,1.80
2018-06-16T00:45:24.964Z,1.80
2018-06-16T00:47:55.828Z,1.77
2018-06-16T00:50:24.581Z,1.63
2018-06-16T00:52:53.475Z,1.97
2018-06-16T00:55:22.185Z,1.90
2018-06-16T00:57:51.448Z,2.30
2018-06-16T01:00:21.068Z,1.67
2018-06-16T01:02:49.927Z,2.20
2018-06-16T01:05:19.825Z,2.00
2018-06-16T01:07:48.632Z,1.80
2018-06-16T01:10:17.412Z,2.00
2018-06-16T01:12:48.270Z,1.77
2018-06-16T01:15:27.483Z,2.00
2018-06-16T01:17:56.249Z,2.60
2018-06-16T01:20:26.107Z,4.30
2018-06-16T01:23:02.969Z,2.70
2018-06-16T01:25:33.914Z,2.57
2018-06-16T01:28:03.745Z,3.13
2018-06-16T01:30:32.524Z,2.30
2018-06-16T01:33:03.458Z,2.17
2018-06-16T01:35:32.326Z,2.37
2018-06-16T01:38:01.085Z,2.20
2018-06-16T01:40:29.929Z,2.40
2018-06-16T01:42:58.645Z,2.37
2018-06-16T01:45:27.358Z,2.20
2018-06-16T01:47:56.105Z,2.47
2018-06-16T01:50:24.957Z,2.27
2018-06-16T01:52:53.775Z,2.23
2018-06-16T01:55:28.117Z,2.60
2018-06-16T01:57:56.849Z,1.80
2018-06-16T02:00:27.897Z,2.20
2018-06-16T02:02:56.625Z,2.77
2018-06-16T02:05:25.415Z,1.77
2018-06-16T02:07:54.200Z,2.63
2018-06-16T02:10:22.985Z,1.90
2018-06-16T02:12:51.777Z,2.27
2018-06-16T02:15:20.554Z,1.97
2018-06-16T02:17:50.074Z,2.57
2018-06-16T02:20:31.929Z,2.20
2018-06-16T02:23:03.902Z,1.73
2018-06-16T02:25:34.823Z,3.30
2018-06-16T02:28:03.630Z,2.13
2018-06-16T02:30:32.405Z,2.40
2018-06-16T02:33:01.223Z,2.33
2018-06-16T02:35:29.976Z,2.27
2018-06-16T02:37:58.706Z,2.40
2018-06-16T02:40:27.500Z,2.07
2018-06-16T02:42:57.309Z,2.07
2018-06-16T02:45:26.154Z,1.93
2018-06-16T02:47:54.902Z,2.60
2018-06-16T02:50:24.822Z,2.10
2018-06-16T02:52:57.649Z,2.37
2018-06-16T02:55:26.464Z,2.33
2018-06-16T02:57:59.210Z,2.87
2018-06-16T03:00:29.009Z,2.23
2018-06-16T03:03:10.729Z,2.77
2018-06-16T03:05:45.512Z,1.73
2018-06-16T03:08:16.269Z,2.17
2018-06-16T03:10:45.841Z,3.20
2018-06-16T03:13:16.843Z,3.00
2018-06-16T03:15:45.734Z,3.03
2018-06-16T03:18:15.461Z,2.93
2018-06-16T03:20:45.304Z,2.50
2018-06-16T03:23:19.600Z,2.50
2018-06-16T03:25:49.370Z,2.30
2018-06-16T03:28:18.190Z,2.33
2018-06-16T03:30:46.713Z,2.10
2018-06-16T03:33:19.539Z,2.40
2018-06-16T03:35:48.375Z,3.30
2018-06-16T03:38:18.156Z,3.50
2018-06-16T03:40:46.891Z,2.73
2018-06-16T03:43:15.689Z,2.70
2018-06-16T03:45:49.679Z,2.40
2018-06-16T03:48:18.646Z,2.80
2018-06-16T03:50:47.375Z,2.47
2018-06-16T03:53:19.506Z,2.90
2018-06-16T03:55:49.268Z,2.40
2018-06-16T03:58:20.175Z,2.90
2018-06-16T04:00:48.901Z,2.57
2018-06-16T04:03:17.695Z,2.63
2018-06-16T04:05:46.409Z,2.30
2018-06-16T04:08:15.255Z,2.80
2018-06-16T04:10:43.978Z,2.43
2018-06-16T04:13:13.883Z,3.10
2018-06-16T04:15:42.646Z,2.87
2018-06-16T04:18:11.488Z,2.23
2018-06-16T04:20:40.291Z,2.17
2018-06-16T04:23:09.068Z,2.70
2018-06-16T04:25:39.812Z,2.90
2018-06-16T04:28:08.611Z,2.60
2018-06-16T04:30:37.417Z,2.40
2018-06-16T04:33:10.970Z,2.30
2018-06-16T04:35:40.758Z,2.30
2018-06-16T04:38:09.548Z,2.50
2018-06-16T04:40:40.275Z,1.97
2018-06-16T04:43:09.997Z,2.60
2018-06-16T04:45:44.309Z,3.23
2018-06-16T04:48:12.782Z,2.60
2018-06-16T04:50:41.466Z,2.77
2018-06-16T04:53:10.212Z,2.57
2018-06-16T04:55:39.069Z,2.73
2018-06-16T04:58:07.865Z,2.87
2018-06-16T05:00:48.809Z,8.00
2018-06-16T05:03:17.540Z,4.43
2018-06-16T05:05:46.315Z,3.07
2018-06-16T05:08:15.141Z,3.10
2018-06-16T05:10:43.903Z,3.70
2018-06-16T05:13:12.752Z,3.03
2018-06-16T05:15:41.625Z,3.20
2018-06-16T05:18:11.208Z,2.90
2018-06-16T05:20:42.281Z,3.20
2018-06-16T05:23:11.360Z,3.13
2018-06-16T05:25:50.507Z,3.60
2018-06-16T05:28:24.104Z,3.40
2018-06-16T05:30:52.837Z,3.00
2018-06-16T05:33:21.553Z,3.53
2018-06-16T05:35:50.613Z,3.13
2018-06-16T05:38:19.401Z,3.87
2018-06-16T05:40:49.279Z,3.47
2018-06-16T05:43:18.210Z,3.67
2018-06-16T05:45:47.135Z,4.17
2018-06-16T05:48:17.058Z,4.27
2018-06-16T05:50:45.831Z,4.00
2018-06-16T05:53:14.566Z,4.33
2018-06-16T05:55:47.106Z,3.60
2018-06-16T05:58:15.919Z,4.10
2018-06-16T06:00:44.761Z,4.57
2018-06-16T06:03:13.530Z,4.30
2018-06-16T06:05:50.181Z,4.00
2018-06-16T06:08:19.088Z,4.07
2018-06-16T06:10:48.592Z,4.00
2018-06-16T06:13:17.329Z,4.30
2018-06-16T06:15:46.187Z,5.40
2018-06-16T06:18:14.975Z,6.00
2018-06-16T06:20:43.836Z,5.20
2018-06-16T06:23:13.248Z,6.57
2018-06-16T06:25:42.052Z,5.50
2018-06-16T06:28:10.920Z,5.83
2018-06-16T06:30:39.759Z,5.13
2018-06-16T06:33:08.604Z,5.77
2018-06-16T06:35:42.419Z,6.30
2018-06-16T06:38:13.420Z,5.50
2018-06-16T06:40:43.339Z,5.50
2018-06-16T06:43:13.426Z,5.10
2018-06-16T06:45:43.390Z,5.13
2018-06-16T06:48:14.443Z,5.13
2018-06-16T06:50:43.273Z,5.57
2018-06-16T06:53:14.528Z,8.33
2018-06-16T06:55:43.317Z,9.27
2018-06-16T06:58:13.051Z,6.80
2018-06-16T07:00:46.819Z,5.73
2018-06-16T07:03:15.769Z,6.50
2018-06-16T07:05:44.743Z,5.30
2018-06-16T07:08:17.305Z,5.13
2018-06-16T07:10:52.862Z,5.33
2018-06-16T07:13:21.611Z,5.80
2018-06-16T07:15:55.872Z,6.07
2018-06-16T07:18:24.674Z,6.27
2018-06-16T07:21:00.960Z,6.33
2018-06-16T07:23:35.833Z,6.33
2018-06-16T07:26:04.600Z,6.67
2018-06-16T07:28:34.374Z,6.13
2018-06-16T07:31:03.413Z,6.50
2018-06-16T07:33:32.274Z,7.00
2018-06-16T07:36:00.992Z,6.13
2018-06-16T07:38:29.835Z,6.60
2018-06-16T07:40:59.641Z,6.63
2018-06-16T07:43:30.400Z,6.70
2018-06-16T07:46:04.639Z,6.37
2018-06-16T07:48:33.257Z,6.10
2018-06-16T07:51:02.082Z,5.87
2018-06-16T07:53:30.921Z,6.10
2018-06-16T07:55:59.636Z,5.83
2018-06-16T07:58:28.410Z,6.13
2018-06-16T08:00:58.247Z,5.50
2018-06-16T08:03:27.027Z,6.03
2018-06-16T08:05:55.891Z,6.93
2018-06-16T08:08:24.771Z,6.00
2018-06-16T08:10:57.505Z,6.70
2018-06-16T08:13:27.458Z,6.00
2018-06-16T08:15:56.756Z,6.20
2018-06-16T08:18:25.569Z,6.10
2018-06-16T08:21:04.327Z,5.43
2018-06-16T08:23:36.791Z,7.00
2018-06-16T08:26:05.640Z,5.77
2018-06-16T08:28:36.459Z,6.00
2018-06-16T08:31:11.298Z,6.27
2018-06-16T08:33:44.424Z,5.97
2018-06-16T08:36:13.220Z,5.90
2018-06-16T08:38:42.040Z,6.10
2018-06-16T08:41:10.864Z,5.20
2018-06-16T08:43:39.744Z,5.50
2018-06-16T08:46:16.120Z,6.53
2018-06-16T08:48:44.814Z,5.77
2018-06-16T08:51:13.636Z,5.27
2018-06-16T08:53:42.627Z,5.80
2018-06-16T08:56:14.998Z,6.43
2018-06-16T08:58:44.876Z,5.23
2018-06-16T09:01:19.472Z,5.60
2018-06-16T09:03:54.882Z,5.33
2018-06-16T09:06:23.717Z,5.43
2018-06-16T09:08:52.536Z,4.97
2018-06-16T09:11:22.566Z,5.40
2018-06-16T09:13:51.421Z,5.20
2018-06-16T09:16:20.253Z,5.10
2018-06-16T09:18:50.088Z,4.40
2018-06-16T09:21:19.908Z,4.53
2018-06-16T09:23:53.386Z,3.93
2018-06-16T09:26:22.213Z,5.20
2018-06-16T09:28:51.055Z,4.40
2018-06-16T09:31:19.992Z,4.87
2018-06-16T09:33:52.686Z,4.13
2018-06-16T09:36:26.428Z,4.50
2018-06-16T09:38:55.223Z,5.10
2018-06-16T09:41:24.711Z,4.30
2018-06-16T09:43:53.555Z,4.60
2018-06-16T09:46:25.240Z,4.67
2018-06-16T09:48:54.059Z,4.67
2018-06-16T09:51:28.414Z,4.43
2018-06-16T09:53:57.299Z,4.90
2018-06-16T09:56:26.144Z,4.77
2018-06-16T09:58:54.937Z,4.47
2018-06-16T10:01:23.758Z,4.10
2018-06-16T10:03:52.571Z,4.30
2018-06-16T10:06:23.595Z,4.00
2018-06-16T10:08:52.422Z,4.00
2018-06-16T10:11:21.024Z,3.83
2018-06-16T10:13:49.695Z,4.20
2018-06-16T10:16:23.473Z,3.83
2018-06-16T10:18:52.821Z,4.20
2018-06-16T10:21:22.863Z,4.27
2018-06-16T10:23:51.882Z,4.10
2018-06-16T10:26:37.839Z,4.33
2018-06-16T10:29:06.666Z,4.00
2018-06-16T10:31:36.628Z,4.03
2018-06-16T10:34:05.457Z,3.97
2018-06-16T10:36:34.407Z,3.90
2018-06-16T10:39:04.496Z,3.57
2018-06-16T10:41:34.729Z,5.13
2018-06-16T10:44:03.526Z,3.80
2018-06-16T10:46:32.366Z,4.27
2018-06-16T10:49:01.840Z,4.57
2018-06-16T10:51:30.714Z,6.90
2018-06-16T10:54:00.752Z,3.93
2018-06-16T10:56:30.082Z,4.10
2018-06-16T10:59:01.052Z,5.30
2018-06-16T11:01:30.726Z,5.77
2018-06-16T11:04:09.917Z,5.63
2018-06-16T11:06:38.804Z,5.27
2018-06-16T11:09:09.675Z,5.43
2018-06-16T11:11:42.417Z,6.63
2018-06-16T11:14:13.628Z,5.83
2018-06-16T11:16:43.514Z,5.33
2018-06-16T11:19:18.521Z,5.30
2018-06-16T11:21:47.331Z,5.77
2018-06-16T11:24:16.097Z,5.10
2018-06-16T11:26:46.934Z,5.73
2018-06-16T11:29:15.749Z,5.37
2018-06-16T11:34:38.738Z,6.10
2018-06-16T11:37:07.555Z,6.83
2018-06-16T11:39:36.752Z,6.47
2018-06-16T11:42:06.756Z,7.13
2018-06-16T11:44:35.545Z,6.33
2018-06-16T11:47:04.371Z,6.10
2018-06-16T11:49:41.018Z,6.60
2018-06-16T11:52:09.962Z,7.40
2018-06-16T11:54:38.939Z,5.40
2018-06-16T11:57:10.847Z,4.57
2018-06-16T11:59:39.718Z,4.27
2018-06-16T12:02:09.452Z,2.90
2018-06-16T12:04:38.486Z,2.87
2018-06-16T12:07:10.117Z,2.73
2018-06-16T12:09:38.957Z,2.77
2018-06-16T12:12:07.764Z,2.40
2018-06-16T12:14:36.556Z,2.60
2018-06-16T12:17:05.341Z,2.50
2018-06-16T12:19:34.344Z,2.60
2018-06-16T12:22:03.224Z,2.90
2018-06-16T12:24:32.088Z,2.60
2018-06-16T12:27:04.577Z,3.43
2018-06-16T12:29:39.709Z,4.00
2018-06-16T12:32:21.768Z,10.87
2018-06-16T12:34:50.707Z,4.30
2018-06-16T12:37:19.661Z,4.20
2018-06-16T12:39:49.651Z,4.33
2018-06-16T12:42:19.536Z,3.87
2018-06-16T12:44:48.744Z,4.10
2018-06-16T12:47:17.684Z,3.90
2018-06-16T12:49:48.533Z,3.50
2018-06-16T12:52:17.297Z,3.73
2018-06-16T12:54:46.168Z,3.90
2018-06-16T12:57:19.499Z,4.60
2018-06-16T12:59:48.933Z,3.80
2018-06-16T13:02:23.101Z,3.60
2018-06-16T13:04:52.341Z,3.30
2018-06-16T13:07:21.308Z,3.33
2018-06-16T13:09:50.117Z,3.93
2018-06-16T13:12:18.942Z,3.23
2018-06-16T13:14:47.782Z,4.00
2018-06-16T13:17:20.544Z,4.57
2018-06-16T13:19:50.447Z,6.00
2018-06-16T13:22:19.478Z,4.83
2018-06-16T13:24:48.401Z,4.93
2018-06-16T13:27:20.861Z,5.90
2018-06-16T13:29:49.572Z,6.90
2018-06-16T13:32:18.664Z,6.90
2018-06-16T13:34:53.413Z,5.90
2018-06-16T13:37:22.173Z,5.80
2018-06-16T13:39:51.055Z,6.17
2018-06-16T13:42:19.784Z,6.90
2018-06-16T13:44:49.616Z,7.27
2018-06-16T13:47:18.615Z,6.80
2018-06-16T13:49:47.426Z,6.10
2018-06-16T13:52:16.155Z,6.30
2018-06-16T13:55:37.601Z,6.07
2018-06-16T13:58:10.064Z,5.17
2018-06-16T14:00:39.053Z,4.80
2018-06-16T14:03:07.973Z,6.03
2018-06-16T14:05:36.814Z,4.60
2018-06-16T14:08:06.113Z,5.20
2018-06-16T14:10:35.043Z,4.20
2018-06-16T14:13:03.856Z,3.00
2018-06-16T14:15:32.779Z,3.20
2018-06-16T14:18:01.648Z,3.17
2018-06-16T14:20:31.445Z,2.77
2018-06-16T14:23:00.325Z,3.27
2018-06-16T14:25:30.165Z,2.63
2018-06-16T14:27:58.954Z,2.93
2018-06-16T14:30:28.914Z,2.70
2018-06-16T14:32:57.706Z,2.77
2018-06-16T14:35:26.571Z,2.93
2018-06-16T14:37:58.738Z,2.87
2018-06-16T14:40:27.581Z,3.40
2018-06-16T14:42:56.469Z,3.20
2018-06-16T14:45:25.363Z,2.70
2018-06-16T14:47:58.226Z,2.97
2018-06-16T14:50:26.987Z,3.20
2018-06-16T14:52:55.806Z,3.10
2018-06-16T14:55:26.699Z,3.03
2018-06-16T14:57:56.527Z,3.20
2018-06-16T15:00:26.666Z,3.13
2018-06-16T15:02:55.577Z,2.83
2018-06-16T15:05:24.439Z,3.53
2018-06-16T15:07:55.384Z,2.97
2018-06-16T15:10:29.125Z,3.13
2018-06-16T15:12:58.143Z,3.43
2018-06-16T15:15:29.700Z,3.03
2018-06-16T15:17:58.526Z,3.03
2018-06-16T15:20:31.505Z,3.10
2018-06-16T15:23:03.818Z,3.00
2018-06-16T15:25:33.846Z,3.33
2018-06-16T15:28:07.389Z,2.90
2018-06-16T15:30:36.209Z,3.17
2018-06-16T15:33:05.309Z,2.97
2018-06-16T15:35:41.261Z,3.00
2018-06-16T15:38:10.104Z,3.60
2018-06-16T15:40:48.876Z,3.20
2018-06-16T15:43:18.885Z,3.47
2018-06-16T15:45:52.170Z,3.70
2018-06-16T15:48:22.962Z,3.37
2018-06-16T15:50:55.337Z,3.13
2018-06-16T15:53:24.162Z,2.90
2018-06-16T15:55:55.004Z,3.03
2018-06-16T15:58:23.845Z,3.43
2018-06-16T16:00:52.821Z,3.57
2018-06-16T16:03:22.637Z,3.87
2018-06-16T16:05:52.577Z,3.47
2018-06-16T16:08:23.389Z,3.23
2018-06-16T16:10:55.321Z,4.00
2018-06-16T16:13:24.128Z,4.43
2018-06-16T16:15:56.345Z,3.07
2018-06-16T16:18:26.193Z,3.20
2018-06-16T16:20:58.359Z,3.50
2018-06-16T16:23:28.297Z,2.77
2018-06-16T16:25:58.169Z,2.87
2018-06-16T16:28:32.779Z,2.80
2018-06-16T16:31:05.038Z,2.73
2018-06-16T16:33:33.843Z,2.50
2018-06-16T16:36:03.668Z,2.70
2018-06-16T16:38:32.507Z,2.47
2018-06-16T16:41:01.399Z,2.43
2018-06-16T16:43:30.180Z,3.63
2018-06-16T16:45:58.942Z,2.60
2018-06-16T16:48:27.762Z,2.70
2018-06-16T16:51:00.362Z,2.47
2018-06-16T16:53:29.127Z,2.40
2018-06-16T16:55:57.982Z,2.90
2018-06-16T16:58:26.784Z,2.30
2018-06-16T17:00:56.635Z,2.77
2018-06-16T17:03:27.380Z,3.17
2018-06-16T17:05:56.211Z,2.80
2018-06-16T17:08:44.184Z,3.00
2018-06-16T17:11:13.067Z,2.53
2018-06-16T17:13:41.904Z,1.90
2018-06-16T17:16:10.683Z,2.60
2018-06-16T17:18:39.461Z,2.40
2018-06-16T17:21:09.275Z,2.30
2018-06-16T17:23:39.185Z,2.20
2018-06-16T17:26:07.882Z,2.37
2018-06-16T17:28:36.700Z,2.20
2018-06-16T17:31:09.923Z,2.10
2018-06-16T17:33:44.073Z,2.60
2018-06-16T17:36:14.210Z,2.13
2018-06-16T17:38:43.013Z,2.17
2018-06-16T17:41:11.906Z,2.00
2018-06-16T17:43:40.715Z,2.50
2018-06-16T17:46:09.589Z,2.47
2018-06-16T17:48:40.362Z,2.00
2018-06-16T17:51:09.132Z,2.30
2018-06-16T17:53:39.097Z,2.10
2018-06-16T17:56:07.878Z,2.53
2018-06-16T17:58:36.581Z,2.20
2018-06-16T18:01:05.390Z,2.33
2018-06-16T18:03:34.273Z,2.10
2018-06-16T18:06:04.075Z,2.90
2018-06-16T18:08:37.810Z,4.77
2018-06-16T18:11:17.113Z,6.07
2018-06-16T18:13:47.083Z,6.20
2018-06-16T18:16:17.868Z,7.00
2018-06-16T18:18:49.785Z,7.00
2018-06-16T18:21:19.556Z,6.70
2018-06-16T18:23:48.142Z,7.97
2018-06-16T18:26:16.815Z,9.37
2018-06-16T18:28:46.725Z,12.30
2018-06-16T18:31:16.061Z,10.20
2018-06-16T18:33:44.883Z,8.23
2018-06-16T18:36:13.732Z,9.60
2018-06-16T18:38:44.576Z,9.47
2018-06-16T18:41:13.824Z,9.97
2018-06-16T18:43:46.416Z,9.77
2018-06-16T18:46:16.270Z,10.00
2018-06-16T18:48:54.754Z,10.23
2018-06-16T18:51:23.658Z,10.20
2018-06-16T18:53:57.047Z,10.83
2018-06-16T18:56:27.850Z,11.07
2018-06-16T18:59:02.229Z,9.80
2018-06-16T19:01:31.098Z,10.10
2018-06-16T19:04:04.381Z,13.97
2018-06-16T19:06:34.194Z,10.97
2018-06-16T19:09:07.687Z,11.40
2018-06-16T19:11:37.912Z,11.17
2018-06-16T19:14:13.912Z,11.20
2018-06-16T19:16:44.779Z,10.50
2018-06-16T19:19:15.660Z,12.23
2018-06-16T19:21:48.044Z,11.87
2018-06-16T19:24:17.844Z,12.47
2018-06-16T19:26:46.619Z,11.67
2018-06-16T19:29:16.679Z,12.27
2018-06-16T19:31:51.468Z,12.80
2018-06-16T19:34:27.491Z,13.70
2018-06-16T19:36:57.472Z,13.10
2018-06-16T19:39:28.245Z,13.77
2018-06-16T19:41:57.019Z,12.70
2018-06-16T19:44:25.843Z,12.07
2018-06-16T19:46:59.327Z,12.07
2018-06-16T19:49:40.348Z,13.17
2018-06-16T19:52:13.160Z,13.33
2018-06-16T19:54:42.960Z,14.53
2018-06-16T19:57:11.755Z,14.43
2018-06-16T19:59:51.290Z,13.63
2018-06-16T20:02:20.143Z,13.70
2018-06-16T20:04:49.937Z,13.87
2018-06-16T20:07:19.882Z,14.97
2018-06-16T20:09:49.662Z,13.00
2018-06-16T20:12:21.459Z,13.33
2018-06-16T20:14:50.298Z,13.33
2018-06-16T20:17:20.181Z,12.77
2018-06-16T20:19:49.007Z,13.60
2018-06-16T20:22:23.185Z,13.40
2018-06-16T20:24:57.435Z,13.67
2018-06-16T20:27:27.254Z,12.40
2018-06-16T20:29:56.162Z,12.93
2018-06-16T20:32:24.874Z,12.90
2018-06-16T20:34:54.726Z,13.13
2018-06-16T20:37:23.555Z,12.10
2018-06-16T20:39:52.462Z,13.13
2018-06-16T20:42:21.291Z,13.73
2018-06-16T20:44:55.371Z,13.23
2018-06-16T20:47:25.186Z,13.87
2018-06-16T20:50:03.386Z,14.40
2018-06-16T20:52:44.805Z,13.13
2018-06-16T20:55:15.181Z,14.20
2018-06-16T20:57:44.107Z,15.17
2018-06-16T21:00:13.957Z,13.57
2018-06-16T21:02:43.331Z,13.50
2018-06-16T21:05:13.321Z,13.47
2018-06-16T21:07:42.699Z,12.77
2018-06-16T21:10:11.666Z,12.97
2018-06-16T21:12:45.110Z,13.87
2018-06-16T21:15:16.337Z,14.30
2018-06-16T21:17:46.222Z,14.60
2018-06-16T21:20:14.994Z,14.60
2018-06-16T21:22:43.870Z,13.37
2018-06-16T21:25:13.702Z,15.17
2018-06-16T21:27:46.305Z,15.77
2018-06-16T21:30:15.114Z,15.47
2018-06-16T21:32:45.009Z,16.67
2018-06-16T21:35:15.858Z,15.40
2018-06-16T21:37:45.205Z,13.33
2018-06-16T21:40:16.017Z,12.70
2018-06-16T21:42:44.915Z,14.00
2018-06-16T21:45:13.862Z,13.60
2018-06-16T21:47:43.715Z,13.60
2018-06-16T21:50:12.431Z,13.90
2018-06-16T21:52:42.593Z,13.87
2018-06-16T21:55:11.416Z,12.87
2018-06-16T21:57:40.282Z,12.80
2018-06-16T22:00:11.717Z,14.07
2018-06-16T22:02:53.383Z,14.17
2018-06-16T22:05:22.116Z,14.90
2018-06-16T22:07:50.943Z,14.70
2018-06-16T22:10:19.779Z,14.10
2018-06-16T22:12:53.517Z,14.27
2018-06-16T22:15:34.674Z,13.73
2018-06-16T22:18:04.448Z,14.03
2018-06-16T22:20:39.069Z,14.30
2018-06-16T22:23:09.880Z,13.80
2018-06-16T22:25:38.842Z,13.50
2018-06-16T22:28:09.640Z,14.60
2018-06-16T22:30:38.531Z,14.17
2018-06-16T22:33:09.133Z,13.57
2018-06-16T22:35:38.037Z,14.13
2018-06-16T22:38:09.020Z,15.57
2018-06-16T22:40:37.816Z,16.10
2018-06-16T22:43:06.734Z,14.97
2018-06-16T22:45:35.751Z,15.23
2018-06-16T22:48:04.566Z,15.40
2018-06-16T22:50:38.838Z,15.70
2018-06-16T22:53:07.816Z,15.70
2018-06-16T22:55:38.437Z,15.20
2018-06-16T22:58:11.203Z,16.10
2018-06-16T23:00:40.128Z,14.70
2018-06-16T23:03:09.955Z,15.20
2018-06-16T23:05:38.738Z,17.13
2018-06-16T23:08:07.466Z,17.73
2018-06-16T23:10:41.503Z,17.43
2018-06-16T23:13:10.245Z,17.03
2018-06-16T23:15:44.334Z,18.57
2018-06-16T23:18:25.184Z,18.27
2018-06-16T23:20:56.013Z,19.90
2018-06-16T23:23:24.761Z,18.83
2018-06-16T23:25:53.478Z,19.67
2018-06-16T23:28:23.140Z,21.10
2018-06-16T23:30:53.983Z,20.70
2018-06-16T23:33:22.677Z,23.57
2018-06-16T23:35:52.552Z,21.00
2018-06-16T23:38:26.312Z,21.30
2018-06-16T23:40:55.098Z,22.40
2018-06-16T23:43:23.793Z,22.73
2018-06-16T23:48:49.865Z,21.27
2018-06-16T23:51:23.269Z,20.20
2018-06-16T23:53:51.989Z,22.27
2018-06-16T23:56:20.791Z,21.20
2018-06-16T23:58:53.440Z,21.10
